sensor_id;sensor_type;location;lat;lon;timestamp;P1;durP1;ratioP1;P2;durP2;ratioP2
61391;SDS011;47261;52.892;5.738;2023-10-31T00:01:50;5.87;;;0.43;;
61391;SDS011;47261;52.892;5.738;2023-10-31T00:04:15;10.97;;;0.77;;
61391;SDS011;47261;52.892;5.738;2023-10-31T00:06:41;4.47;;;0.60;;
61391;SDS011;47261;52.892;5.738;2023-10-31T00:09:07;7.60;;;0.87;;
61391;SDS011;47261;52.892;5.738;2023-10-31T00:11:33;9.77;;;0.95;;
61391;SDS011;47261;52.892;5.738;2023-10-31T00:13:58;5.68;;;0.70;;
61391;SDS011;47261;52.892;5.738;2023-10-31T00:16:24;10.37;;;1.10;;
61391;SDS011;47261;52.892;5.738;2023-10-31T00:18:50;10.30;;;1.25;;
61391;SDS011;47261;52.892;5.738;2023-10-31T00:21:15;9.17;;;1.60;;
61391;SDS011;47261;52.892;5.738;2023-10-31T00:23:44;11.17;;;1.33;;
61391;SDS011;47261;52.892;5.738;2023-10-31T00:26:11;10.60;;;1.30;;
61391;SDS011;47261;52.892;5.738;2023-10-31T00:28:37;8.32;;;1.67;;
61391;SDS011;47261;52.892;5.738;2023-10-31T00:31:02;12.33;;;1.73;;
61391;SDS011;47261;52.892;5.738;2023-10-31T00:33:29;13.57;;;2.33;;
61391;SDS011;47261;52.892;5.738;2023-10-31T00:35:55;12.43;;;2.53;;
61391;SDS011;47261;52.892;5.738;2023-10-31T00:38:20;10.93;;;1.30;;
61391;SDS011;47261;52.892;5.738;2023-10-31T00:40:46;8.93;;;1.33;;
61391;SDS011;47261;52.892;5.738;2023-10-31T00:43:12;10.57;;;1.00;;
61391;SDS011;47261;52.892;5.738;2023-10-31T00:45:37;6.55;;;0.73;;
61391;SDS011;47261;52.892;5.738;2023-10-31T00:48:03;7.13;;;0.70;;
61391;SDS011;47261;52.892;5.738;2023-10-31T00:50:29;11.35;;;0.75;;
61391;SDS011;47261;52.892;5.738;2023-10-31T00:52:54;5.00;;;0.47;;
61391;SDS011;47261;52.892;5.738;2023-10-31T00:55:20;7.50;;;0.80;;
61391;SDS011;47261;52.892;5.738;2023-10-31T00:57:45;2.70;;;0.40;;
61391;SDS011;47261;52.892;5.738;2023-10-31T01:00:11;10.93;;;0.80;;
61391;SDS011;47261;52.892;5.738;2023-10-31T01:02:37;8.23;;;0.70;;
61391;SDS011;47261;52.892;5.738;2023-10-31T01:05:03;7.00;;;0.77;;
61391;SDS011;47261;52.892;5.738;2023-10-31T01:07:29;8.97;;;1.00;;
61391;SDS011;47261;52.892;5.738;2023-10-31T01:09:55;8.00;;;0.57;;
61391;SDS011;47261;52.892;5.738;2023-10-31T01:12:20;11.20;;;0.83;;
61391;SDS011;47261;52.892;5.738;2023-10-31T01:14:46;6.72;;;0.50;;
61391;SDS011;47261;52.892;5.738;2023-10-31T01:17:11;11.00;;;0.60;;
61391;SDS011;47261;52.892;5.738;2023-10-31T01:19:37;12.20;;;0.75;;
61391;SDS011;47261;52.892;5.738;2023-10-31T01:22:03;11.40;;;1.10;;
61391;SDS011;47261;52.892;5.738;2023-10-31T01:24:28;7.50;;;0.50;;
61391;SDS011;47261;52.892;5.738;2023-10-31T01:26:54;10.10;;;0.80;;
61391;SDS011;47261;52.892;5.738;2023-10-31T01:29:19;8.93;;;0.80;;
61391;SDS011;47261;52.892;5.738;2023-10-31T01:31:45;9.00;;;0.95;;
61391;SDS011;47261;52.892;5.738;2023-10-31T01:34:11;10.23;;;1.07;;
61391;SDS011;47261;52.892;5.738;2023-10-31T01:36:36;14.57;;;1.13;;
61391;SDS011;47261;52.892;5.738;2023-10-31T01:39:02;11.47;;;0.83;;
61391;SDS011;47261;52.892;5.738;2023-10-31T01:41:28;11.68;;;1.23;;
61391;SDS011;47261;52.892;5.738;2023-10-31T01:43:53;16.33;;;1.27;;
61391;SDS011;47261;52.892;5.738;2023-10-31T01:46:19;8.38;;;0.98;;
61391;SDS011;47261;52.892;5.738;2023-10-31T01:48:45;15.27;;;1.87;;
61391;SDS011;47261;52.892;5.738;2023-10-31T01:51:11;10.55;;;1.40;;
61391;SDS011;47261;52.892;5.738;2023-10-31T01:53:37;10.80;;;1.57;;
61391;SDS011;47261;52.892;5.738;2023-10-31T01:56:03;8.90;;;1.50;;
61391;SDS011;47261;52.892;5.738;2023-10-31T01:58:31;11.02;;;1.70;;
61391;SDS011;47261;52.892;5.738;2023-10-31T02:01:02;14.50;;;2.03;;
61391;SDS011;47261;52.892;5.738;2023-10-31T02:03:29;11.23;;;2.10;;
61391;SDS011;47261;52.892;5.738;2023-10-31T02:05:55;9.95;;;1.83;;
61391;SDS011;47261;52.892;5.738;2023-10-31T02:08:21;10.95;;;2.17;;
61391;SDS011;47261;52.892;5.738;2023-10-31T02:10:47;9.63;;;2.13;;
61391;SDS011;47261;52.892;5.738;2023-10-31T02:13:14;11.85;;;1.65;;
61391;SDS011;47261;52.892;5.738;2023-10-31T02:15:40;12.63;;;2.00;;
61391;SDS011;47261;52.892;5.738;2023-10-31T02:18:06;10.63;;;1.65;;
61391;SDS011;47261;52.892;5.738;2023-10-31T02:20:33;11.17;;;1.77;;
61391;SDS011;47261;52.892;5.738;2023-10-31T02:22:59;9.82;;;2.30;;
61391;SDS011;47261;52.892;5.738;2023-10-31T02:25:25;7.80;;;1.73;;
61391;SDS011;47261;52.892;5.738;2023-10-31T02:27:50;9.40;;;1.60;;
61391;SDS011;47261;52.892;5.738;2023-10-31T02:30:16;12.27;;;2.08;;
61391;SDS011;47261;52.892;5.738;2023-10-31T02:32:42;7.37;;;1.40;;
61391;SDS011;47261;52.892;5.738;2023-10-31T02:35:08;11.20;;;1.67;;
61391;SDS011;47261;52.892;5.738;2023-10-31T02:37:34;12.30;;;1.80;;
61391;SDS011;47261;52.892;5.738;2023-10-31T02:40:00;14.97;;;1.80;;
61391;SDS011;47261;52.892;5.738;2023-10-31T02:42:26;7.53;;;1.17;;
61391;SDS011;47261;52.892;5.738;2023-10-31T02:44:52;10.70;;;1.10;;
61391;SDS011;47261;52.892;5.738;2023-10-31T02:47:17;10.03;;;1.60;;
61391;SDS011;47261;52.892;5.738;2023-10-31T02:49:43;8.15;;;1.10;;
61391;SDS011;47261;52.892;5.738;2023-10-31T02:52:09;11.83;;;1.03;;
61391;SDS011;47261;52.892;5.738;2023-10-31T02:54:34;14.02;;;1.10;;
61391;SDS011;47261;52.892;5.738;2023-10-31T02:57:01;5.28;;;0.75;;
61391;SDS011;47261;52.892;5.738;2023-10-31T02:59:27;12.17;;;1.03;;
61391;SDS011;47261;52.892;5.738;2023-10-31T03:01:53;6.38;;;0.82;;
61391;SDS011;47261;52.892;5.738;2023-10-31T03:04:18;5.50;;;0.77;;
61391;SDS011;47261;52.892;5.738;2023-10-31T03:06:44;5.45;;;0.57;;
61391;SDS011;47261;52.892;5.738;2023-10-31T03:09:10;6.60;;;1.10;;
61391;SDS011;47261;52.892;5.738;2023-10-31T03:11:35;10.02;;;1.00;;
61391;SDS011;47261;52.892;5.738;2023-10-31T03:14:01;5.10;;;0.90;;
61391;SDS011;47261;52.892;5.738;2023-10-31T03:16:27;9.27;;;0.88;;
61391;SDS011;47261;52.892;5.738;2023-10-31T03:18:52;4.63;;;0.50;;
61391;SDS011;47261;52.892;5.738;2023-10-31T03:21:18;5.93;;;0.80;;
61391;SDS011;47261;52.892;5.738;2023-10-31T03:23:47;7.85;;;0.50;;
61391;SDS011;47261;52.892;5.738;2023-10-31T03:26:14;5.57;;;0.80;;
61391;SDS011;47261;52.892;5.738;2023-10-31T03:28:42;14.73;;;0.90;;
61391;SDS011;47261;52.892;5.738;2023-10-31T03:31:08;8.73;;;0.90;;
61391;SDS011;47261;52.892;5.738;2023-10-31T03:33:34;10.90;;;1.15;;
61391;SDS011;47261;52.892;5.738;2023-10-31T03:36:00;9.10;;;1.17;;
61391;SDS011;47261;52.892;5.738;2023-10-31T03:38:25;9.37;;;0.87;;
61391;SDS011;47261;52.892;5.738;2023-10-31T03:40:51;6.20;;;0.73;;
61391;SDS011;47261;52.892;5.738;2023-10-31T03:43:18;7.93;;;0.73;;
61391;SDS011;47261;52.892;5.738;2023-10-31T03:45:45;5.57;;;0.75;;
61391;SDS011;47261;52.892;5.738;2023-10-31T03:48:12;6.28;;;0.60;;
61391;SDS011;47261;52.892;5.738;2023-10-31T03:50:38;7.40;;;1.10;;
61391;SDS011;47261;52.892;5.738;2023-10-31T03:53:03;5.15;;;0.35;;
61391;SDS011;47261;52.892;5.738;2023-10-31T03:55:29;5.47;;;0.30;;
61391;SDS011;47261;52.892;5.738;2023-10-31T03:57:55;4.90;;;0.40;;
61391;SDS011;47261;52.892;5.738;2023-10-31T04:00:21;7.10;;;0.90;;
61391;SDS011;47261;52.892;5.738;2023-10-31T04:02:47;10.73;;;0.80;;
61391;SDS011;47261;52.892;5.738;2023-10-31T04:05:12;3.33;;;0.40;;
61391;SDS011;47261;52.892;5.738;2023-10-31T04:07:38;6.27;;;0.70;;
61391;SDS011;47261;52.892;5.738;2023-10-31T04:10:03;7.33;;;0.50;;
61391;SDS011;47261;52.892;5.738;2023-10-31T04:12:30;3.25;;;0.30;;
61391;SDS011;47261;52.892;5.738;2023-10-31T04:14:57;4.25;;;0.82;;
61391;SDS011;47261;52.892;5.738;2023-10-31T04:17:22;9.52;;;0.60;;
61391;SDS011;47261;52.892;5.738;2023-10-31T04:19:48;3.90;;;0.40;;
61391;SDS011;47261;52.892;5.738;2023-10-31T04:22:14;8.80;;;0.40;;
61391;SDS011;47261;52.892;5.738;2023-10-31T04:24:39;5.63;;;0.40;;
61391;SDS011;47261;52.892;5.738;2023-10-31T04:27:06;8.60;;;0.70;;
61391;SDS011;47261;52.892;5.738;2023-10-31T04:29:32;3.20;;;0.43;;
61391;SDS011;47261;52.892;5.738;2023-10-31T04:31:58;3.03;;;0.30;;
61391;SDS011;47261;52.892;5.738;2023-10-31T04:34:23;1.45;;;0.15;;
61391;SDS011;47261;52.892;5.738;2023-10-31T04:36:49;6.13;;;0.50;;
61391;SDS011;47261;52.892;5.738;2023-10-31T04:39:15;4.90;;;0.20;;
61391;SDS011;47261;52.892;5.738;2023-10-31T04:41:41;3.38;;;0.40;;
61391;SDS011;47261;52.892;5.738;2023-10-31T04:44:06;0.88;;;0.10;;
61391;SDS011;47261;52.892;5.738;2023-10-31T04:46:32;6.50;;;0.30;;
61391;SDS011;47261;52.892;5.738;2023-10-31T04:48:58;2.83;;;0.35;;
61391;SDS011;47261;52.892;5.738;2023-10-31T04:51:24;0.57;;;0.10;;
61391;SDS011;47261;52.892;5.738;2023-10-31T04:53:49;3.42;;;0.28;;
61391;SDS011;47261;52.892;5.738;2023-10-31T04:56:15;3.77;;;0.30;;
61391;SDS011;47261;52.892;5.738;2023-10-31T04:58:42;0.73;;;0.28;;
61391;SDS011;47261;52.892;5.738;2023-10-31T05:01:11;2.42;;;0.20;;
61391;SDS011;47261;52.892;5.738;2023-10-31T05:03:38;2.03;;;0.30;;
61391;SDS011;47261;52.892;5.738;2023-10-31T05:06:04;2.03;;;0.27;;
61391;SDS011;47261;52.892;5.738;2023-10-31T05:08:30;0.52;;;0.10;;
61391;SDS011;47261;52.892;5.738;2023-10-31T05:10:57;1.40;;;0.20;;
61391;SDS011;47261;52.892;5.738;2023-10-31T05:13:23;2.92;;;0.38;;
61391;SDS011;47261;52.892;5.738;2023-10-31T05:15:49;2.97;;;0.60;;
61391;SDS011;47261;52.892;5.738;2023-10-31T05:18:15;3.25;;;0.47;;
61391;SDS011;47261;52.892;5.738;2023-10-31T05:20:41;3.92;;;0.60;;
61391;SDS011;47261;52.892;5.738;2023-10-31T05:23:07;3.40;;;0.57;;
61391;SDS011;47261;52.892;5.738;2023-10-31T05:25:33;4.95;;;0.73;;
61391;SDS011;47261;52.892;5.738;2023-10-31T05:27:59;6.93;;;1.33;;
61391;SDS011;47261;52.892;5.738;2023-10-31T05:30:25;5.93;;;1.30;;
61391;SDS011;47261;52.892;5.738;2023-10-31T05:32:51;3.80;;;0.68;;
61391;SDS011;47261;52.892;5.738;2023-10-31T05:35:17;6.10;;;1.30;;
61391;SDS011;47261;52.892;5.738;2023-10-31T05:37:43;2.87;;;0.70;;
61391;SDS011;47261;52.892;5.738;2023-10-31T05:40:10;3.55;;;0.57;;
61391;SDS011;47261;52.892;5.738;2023-10-31T05:42:37;4.30;;;0.60;;
61391;SDS011;47261;52.892;5.738;2023-10-31T05:45:02;7.37;;;0.70;;
61391;SDS011;47261;52.892;5.738;2023-10-31T05:47:28;7.95;;;0.63;;
61391;SDS011;47261;52.892;5.738;2023-10-31T05:49:54;3.55;;;0.40;;
61391;SDS011;47261;52.892;5.738;2023-10-31T05:52:19;6.63;;;0.80;;
61391;SDS011;47261;52.892;5.738;2023-10-31T05:54:45;4.37;;;0.40;;
61391;SDS011;47261;52.892;5.738;2023-10-31T05:57:10;8.13;;;0.70;;
61391;SDS011;47261;52.892;5.738;2023-10-31T05:59:36;2.43;;;0.40;;
61391;SDS011;47261;52.892;5.738;2023-10-31T06:02:02;8.15;;;0.63;;
61391;SDS011;47261;52.892;5.738;2023-10-31T06:04:28;3.93;;;0.60;;
61391;SDS011;47261;52.892;5.738;2023-10-31T06:06:53;4.20;;;0.63;;
61391;SDS011;47261;52.892;5.738;2023-10-31T06:09:19;8.23;;;0.70;;
61391;SDS011;47261;52.892;5.738;2023-10-31T06:11:44;9.10;;;0.50;;
61391;SDS011;47261;52.892;5.738;2023-10-31T06:14:10;7.33;;;0.60;;
61391;SDS011;47261;52.892;5.738;2023-10-31T06:16:43;5.18;;;0.43;;
61391;SDS011;47261;52.892;5.738;2023-10-31T06:19:09;2.50;;;0.37;;
61391;SDS011;47261;52.892;5.738;2023-10-31T06:21:35;3.85;;;0.32;;
61391;SDS011;47261;52.892;5.738;2023-10-31T06:24:03;5.90;;;0.30;;
61391;SDS011;47261;52.892;5.738;2023-10-31T06:26:29;2.55;;;0.50;;
61391;SDS011;47261;52.892;5.738;2023-10-31T06:28:54;8.50;;;0.50;;
61391;SDS011;47261;52.892;5.738;2023-10-31T06:31:20;6.15;;;0.80;;
61391;SDS011;47261;52.892;5.738;2023-10-31T06:33:46;7.00;;;0.67;;
61391;SDS011;47261;52.892;5.738;2023-10-31T06:36:11;2.80;;;0.50;;
61391;SDS011;47261;52.892;5.738;2023-10-31T06:38:37;5.30;;;0.50;;
61391;SDS011;47261;52.892;5.738;2023-10-31T06:41:03;3.97;;;0.40;;
61391;SDS011;47261;52.892;5.738;2023-10-31T06:43:29;8.10;;;0.50;;
61391;SDS011;47261;52.892;5.738;2023-10-31T06:45:54;2.70;;;0.47;;
61391;SDS011;47261;52.892;5.738;2023-10-31T06:48:20;5.10;;;0.30;;
61391;SDS011;47261;52.892;5.738;2023-10-31T06:50:46;4.73;;;0.50;;
61391;SDS011;47261;52.892;5.738;2023-10-31T06:53:11;5.13;;;0.50;;
61391;SDS011;47261;52.892;5.738;2023-10-31T06:55:37;2.80;;;0.60;;
61391;SDS011;47261;52.892;5.738;2023-10-31T06:58:02;5.88;;;0.60;;
61391;SDS011;47261;52.892;5.738;2023-10-31T07:00:28;5.18;;;0.60;;
61391;SDS011;47261;52.892;5.738;2023-10-31T07:02:54;6.83;;;0.43;;
61391;SDS011;47261;52.892;5.738;2023-10-31T07:05:20;5.97;;;0.60;;
61391;SDS011;47261;52.892;5.738;2023-10-31T07:07:46;3.47;;;0.60;;
61391;SDS011;47261;52.892;5.738;2023-10-31T07:10:12;5.38;;;0.50;;
61391;SDS011;47261;52.892;5.738;2023-10-31T07:12:38;3.50;;;0.50;;
61391;SDS011;47261;52.892;5.738;2023-10-31T07:15:04;3.50;;;0.50;;
61391;SDS011;47261;52.892;5.738;2023-10-31T07:17:30;5.85;;;0.45;;
61391;SDS011;47261;52.892;5.738;2023-10-31T07:19:55;7.03;;;0.93;;
61391;SDS011;47261;52.892;5.738;2023-10-31T07:22:21;6.00;;;0.70;;
61391;SDS011;47261;52.892;5.738;2023-10-31T07:24:49;10.20;;;0.80;;
61391;SDS011;47261;52.892;5.738;2023-10-31T07:27:16;3.53;;;0.70;;
61391;SDS011;47261;52.892;5.738;2023-10-31T07:29:42;6.87;;;0.60;;
61391;SDS011;47261;52.892;5.738;2023-10-31T07:32:08;6.05;;;0.70;;
61391;SDS011;47261;52.892;5.738;2023-10-31T07:34:35;5.70;;;1.33;;
61391;SDS011;47261;52.892;5.738;2023-10-31T07:37:01;6.25;;;0.70;;
61391;SDS011;47261;52.892;5.738;2023-10-31T07:39:26;6.97;;;0.80;;
61391;SDS011;47261;52.892;5.738;2023-10-31T07:41:52;3.28;;;0.50;;
61391;SDS011;47261;52.892;5.738;2023-10-31T07:44:18;8.63;;;1.00;;
61391;SDS011;47261;52.892;5.738;2023-10-31T07:46:43;5.63;;;0.60;;
61391;SDS011;47261;52.892;5.738;2023-10-31T07:49:09;4.33;;;0.40;;
61391;SDS011;47261;52.892;5.738;2023-10-31T07:51:35;6.13;;;0.30;;
61391;SDS011;47261;52.892;5.738;2023-10-31T07:54:00;3.93;;;0.30;;
61391;SDS011;47261;52.892;5.738;2023-10-31T07:56:26;4.83;;;0.40;;
61391;SDS011;47261;52.892;5.738;2023-10-31T07:58:51;4.72;;;0.57;;
61391;SDS011;47261;52.892;5.738;2023-10-31T08:01:18;8.17;;;0.40;;
61391;SDS011;47261;52.892;5.738;2023-10-31T08:03:45;5.45;;;0.30;;
61391;SDS011;47261;52.892;5.738;2023-10-31T08:06:13;7.82;;;0.47;;
61391;SDS011;47261;52.892;5.738;2023-10-31T08:08:39;1.20;;;0.10;;
61391;SDS011;47261;52.892;5.738;2023-10-31T08:11:11;4.93;;;0.40;;
61391;SDS011;47261;52.892;5.738;2023-10-31T08:13:39;4.20;;;0.40;;
61391;SDS011;47261;52.892;5.738;2023-10-31T08:16:06;11.32;;;0.88;;
61391;SDS011;47261;52.892;5.738;2023-10-31T08:18:32;6.70;;;0.47;;
61391;SDS011;47261;52.892;5.738;2023-10-31T08:20:58;4.85;;;0.32;;
61391;SDS011;47261;52.892;5.738;2023-10-31T08:23:24;2.55;;;0.15;;
61391;SDS011;47261;52.892;5.738;2023-10-31T08:25:50;4.43;;;0.10;;
61391;SDS011;47261;52.892;5.738;2023-10-31T08:28:16;4.80;;;0.30;;
61391;SDS011;47261;52.892;5.738;2023-10-31T08:30:41;4.37;;;0.13;;
61391;SDS011;47261;52.892;5.738;2023-10-31T08:33:07;4.85;;;0.47;;
61391;SDS011;47261;52.892;5.738;2023-10-31T08:35:33;4.33;;;0.20;;
61391;SDS011;47261;52.892;5.738;2023-10-31T08:37:58;7.80;;;0.50;;
61391;SDS011;47261;52.892;5.738;2023-10-31T08:40:24;4.87;;;0.20;;
61391;SDS011;47261;52.892;5.738;2023-10-31T08:42:50;5.32;;;0.28;;
61391;SDS011;47261;52.892;5.738;2023-10-31T08:45:16;2.37;;;0.20;;
61391;SDS011;47261;52.892;5.738;2023-10-31T08:47:41;7.60;;;0.65;;
61391;SDS011;47261;52.892;5.738;2023-10-31T08:50:07;2.07;;;0.10;;
61391;SDS011;47261;52.892;5.738;2023-10-31T08:52:36;2.88;;;0.20;;
61391;SDS011;47261;52.892;5.738;2023-10-31T08:55:02;3.13;;;0.35;;
61391;SDS011;47261;52.892;5.738;2023-10-31T08:57:28;4.90;;;0.45;;
61391;SDS011;47261;52.892;5.738;2023-10-31T08:59:54;3.60;;;0.30;;
61391;SDS011;47261;52.892;5.738;2023-10-31T09:02:20;5.93;;;0.20;;
61391;SDS011;47261;52.892;5.738;2023-10-31T09:04:46;2.53;;;0.20;;
61391;SDS011;47261;52.892;5.738;2023-10-31T09:07:11;2.33;;;0.20;;
61391;SDS011;47261;52.892;5.738;2023-10-31T09:09:37;4.27;;;0.20;;
61391;SDS011;47261;52.892;5.738;2023-10-31T09:12:02;2.35;;;0.35;;
61391;SDS011;47261;52.892;5.738;2023-10-31T09:14:28;4.03;;;0.30;;
61391;SDS011;47261;52.892;5.738;2023-10-31T09:16:54;3.70;;;0.10;;
61391;SDS011;47261;52.892;5.738;2023-10-31T09:19:20;8.00;;;0.30;;
61391;SDS011;47261;52.892;5.738;2023-10-31T09:21:45;3.78;;;0.30;;
61391;SDS011;47261;52.892;5.738;2023-10-31T09:24:11;6.37;;;0.40;;
61391;SDS011;47261;52.892;5.738;2023-10-31T09:26:37;2.85;;;0.20;;
61391;SDS011;47261;52.892;5.738;2023-10-31T09:29:06;3.13;;;0.20;;
61391;SDS011;47261;52.892;5.738;2023-10-31T09:31:32;1.25;;;0.10;;
61391;SDS011;47261;52.892;5.738;2023-10-31T09:33:57;6.50;;;0.40;;
61391;SDS011;47261;52.892;5.738;2023-10-31T09:36:23;3.53;;;0.20;;
61391;SDS011;47261;52.892;5.738;2023-10-31T09:38:48;4.13;;;0.20;;
61391;SDS011;47261;52.892;5.738;2023-10-31T09:41:14;7.60;;;0.30;;
61391;SDS011;47261;52.892;5.738;2023-10-31T09:43:40;5.13;;;0.47;;
61391;SDS011;47261;52.892;5.738;2023-10-31T09:46:07;1.58;;;0.20;;
61391;SDS011;47261;52.892;5.738;2023-10-31T09:48:34;1.73;;;0.28;;
61391;SDS011;47261;52.892;5.738;2023-10-31T09:51:00;4.87;;;0.50;;
61391;SDS011;47261;52.892;5.738;2023-10-31T09:53:27;4.60;;;0.30;;
61391;SDS011;47261;52.892;5.738;2023-10-31T09:55:54;1.95;;;0.20;;
61391;SDS011;47261;52.892;5.738;2023-10-31T09:58:22;2.38;;;0.20;;
61391;SDS011;47261;52.892;5.738;2023-10-31T10:00:49;6.70;;;1.43;;
61391;SDS011;47261;52.892;5.738;2023-10-31T10:03:15;3.72;;;0.28;;
61391;SDS011;47261;52.892;5.738;2023-10-31T10:05:45;3.63;;;0.20;;
61391;SDS011;47261;52.892;5.738;2023-10-31T10:08:11;3.53;;;0.40;;
61391;SDS011;47261;52.892;5.738;2023-10-31T10:10:37;2.87;;;0.30;;
61391;SDS011;47261;52.892;5.738;2023-10-31T10:13:03;1.95;;;0.20;;
61391;SDS011;47261;52.892;5.738;2023-10-31T10:15:29;2.57;;;0.20;;
61391;SDS011;47261;52.892;5.738;2023-10-31T10:17:55;0.70;;;0.10;;
61391;SDS011;47261;52.892;5.738;2023-10-31T10:20:21;3.65;;;0.20;;
61391;SDS011;47261;52.892;5.738;2023-10-31T10:22:47;1.20;;;0.20;;
61391;SDS011;47261;52.892;5.738;2023-10-31T10:25:16;6.30;;;0.30;;
61391;SDS011;47261;52.892;5.738;2023-10-31T10:27:46;1.88;;;0.10;;
61391;SDS011;47261;52.892;5.738;2023-10-31T10:30:12;1.37;;;0.10;;
61391;SDS011;47261;52.892;5.738;2023-10-31T10:32:39;1.05;;;0.10;;
61391;SDS011;47261;52.892;5.738;2023-10-31T10:35:05;1.08;;;0.20;;
61391;SDS011;47261;52.892;5.738;2023-10-31T10:37:31;2.40;;;0.20;;
61391;SDS011;47261;52.892;5.738;2023-10-31T10:40:01;0.57;;;0.10;;
61391;SDS011;47261;52.892;5.738;2023-10-31T10:42:31;0.63;;;0.10;;
61391;SDS011;47261;52.892;5.738;2023-10-31T10:45:03;2.10;;;0.20;;
61391;SDS011;47261;52.892;5.738;2023-10-31T10:47:33;2.60;;;0.20;;
61391;SDS011;47261;52.892;5.738;2023-10-31T10:50:03;0.70;;;0.20;;
61391;SDS011;47261;52.892;5.738;2023-10-31T10:52:42;0.67;;;0.10;;
61391;SDS011;47261;52.892;5.738;2023-10-31T10:55:13;3.63;;;0.17;;
61391;SDS011;47261;52.892;5.738;2023-10-31T10:57:48;2.53;;;0.20;;
61391;SDS011;47261;52.892;5.738;2023-10-31T11:00:26;2.28;;;0.20;;
61391;SDS011;47261;52.892;5.738;2023-10-31T11:02:52;2.93;;;0.20;;
61391;SDS011;47261;52.892;5.738;2023-10-31T11:05:18;4.50;;;0.20;;
61391;SDS011;47261;52.892;5.738;2023-10-31T11:07:45;3.03;;;0.20;;
61391;SDS011;47261;52.892;5.738;2023-10-31T11:10:11;4.57;;;0.20;;
61391;SDS011;47261;52.892;5.738;2023-10-31T11:12:37;0.90;;;0.10;;
61391;SDS011;47261;52.892;5.738;2023-10-31T11:15:06;1.45;;;0.10;;
61391;SDS011;47261;52.892;5.738;2023-10-31T11:17:34;1.73;;;0.15;;
61391;SDS011;47261;52.892;5.738;2023-10-31T11:20:03;2.20;;;0.10;;
61391;SDS011;47261;52.892;5.738;2023-10-31T11:22:40;2.13;;;0.10;;
61391;SDS011;47261;52.892;5.738;2023-10-31T11:25:09;1.77;;;0.20;;
61391;SDS011;47261;52.892;5.738;2023-10-31T11:27:37;2.38;;;0.10;;
61391;SDS011;47261;52.892;5.738;2023-10-31T11:30:06;1.58;;;0.10;;
61391;SDS011;47261;52.892;5.738;2023-10-31T11:32:51;0.73;;;0.10;;
61391;SDS011;47261;52.892;5.738;2023-10-31T11:35:17;0.75;;;0.10;;
61391;SDS011;47261;52.892;5.738;2023-10-31T11:37:43;1.55;;;0.20;;
61391;SDS011;47261;52.892;5.738;2023-10-31T11:42:38;1.47;;;0.20;;
61391;SDS011;47261;52.892;5.738;2023-10-31T11:45:04;1.48;;;0.17;;
61391;SDS011;47261;52.892;5.738;2023-10-31T11:47:45;5.35;;;0.30;;
61391;SDS011;47261;52.892;5.738;2023-10-31T11:50:11;6.47;;;1.25;;
61391;SDS011;47261;52.892;5.738;2023-10-31T11:52:37;2.63;;;0.10;;
61391;SDS011;47261;52.892;5.738;2023-10-31T11:55:03;0.73;;;0.20;;
61391;SDS011;47261;52.892;5.738;2023-10-31T11:57:33;1.85;;;0.20;;
61391;SDS011;47261;52.892;5.738;2023-10-31T11:59:59;0.83;;;0.20;;
61391;SDS011;47261;52.892;5.738;2023-10-31T12:02:25;1.17;;;0.13;;
61391;SDS011;47261;52.892;5.738;2023-10-31T12:04:50;1.77;;;0.20;;
61391;SDS011;47261;52.892;5.738;2023-10-31T12:07:18;0.33;;;0.10;;
61391;SDS011;47261;52.892;5.738;2023-10-31T12:09:47;1.08;;;0.20;;
61391;SDS011;47261;52.892;5.738;2023-10-31T12:12:13;0.22;;;0.10;;
61391;SDS011;47261;52.892;5.738;2023-10-31T12:14:40;0.52;;;0.10;;
61391;SDS011;47261;52.892;5.738;2023-10-31T12:17:06;1.87;;;0.10;;
61391;SDS011;47261;52.892;5.738;2023-10-31T12:19:32;1.20;;;0.10;;
61391;SDS011;47261;52.892;5.738;2023-10-31T12:21:58;1.85;;;0.20;;
61391;SDS011;47261;52.892;5.738;2023-10-31T12:24:24;0.97;;;0.17;;
61391;SDS011;47261;52.892;5.738;2023-10-31T12:26:49;1.65;;;0.13;;
61391;SDS011;47261;52.892;5.738;2023-10-31T12:29:17;1.70;;;0.30;;
61391;SDS011;47261;52.892;5.738;2023-10-31T12:31:45;0.40;;;0.10;;
61391;SDS011;47261;52.892;5.738;2023-10-31T12:34:15;0.95;;;0.13;;
61391;SDS011;47261;52.892;5.738;2023-10-31T12:36:42;1.15;;;0.10;;
61391;SDS011;47261;52.892;5.738;2023-10-31T12:39:10;0.77;;;0.10;;
61391;SDS011;47261;52.892;5.738;2023-10-31T12:41:37;0.43;;;0.20;;
61391;SDS011;47261;52.892;5.738;2023-10-31T12:44:04;0.55;;;0.20;;
61391;SDS011;47261;52.892;5.738;2023-10-31T12:46:31;0.55;;;0.20;;
61391;SDS011;47261;52.892;5.738;2023-10-31T12:48:58;2.65;;;0.35;;
61391;SDS011;47261;52.892;5.738;2023-10-31T12:51:24;1.45;;;0.10;;
61391;SDS011;47261;52.892;5.738;2023-10-31T12:53:50;2.00;;;0.20;;
61391;SDS011;47261;52.892;5.738;2023-10-31T12:59:04;1.38;;;0.22;;
61391;SDS011;47261;52.892;5.738;2023-10-31T13:01:34;1.05;;;0.10;;
61391;SDS011;47261;52.892;5.738;2023-10-31T13:04:02;3.00;;;0.20;;
61391;SDS011;47261;52.892;5.738;2023-10-31T13:06:28;2.47;;;0.13;;
61391;SDS011;47261;52.892;5.738;2023-10-31T13:08:58;0.90;;;0.20;;
61391;SDS011;47261;52.892;5.738;2023-10-31T13:11:23;0.55;;;0.10;;
61391;SDS011;47261;52.892;5.738;2023-10-31T13:13:53;0.57;;;0.15;;
61391;SDS011;47261;52.892;5.738;2023-10-31T13:16:19;1.10;;;0.10;;
61391;SDS011;47261;52.892;5.738;2023-10-31T13:18:45;0.60;;;0.10;;
61391;SDS011;47261;52.892;5.738;2023-10-31T13:21:10;4.40;;;0.10;;
61391;SDS011;47261;52.892;5.738;2023-10-31T13:23:37;2.72;;;0.20;;
61391;SDS011;47261;52.892;5.738;2023-10-31T13:26:04;5.22;;;0.47;;
61391;SDS011;47261;52.892;5.738;2023-10-31T13:28:29;0.67;;;0.10;;
61391;SDS011;47261;52.892;5.738;2023-10-31T13:30:57;1.48;;;0.20;;
61391;SDS011;47261;52.892;5.738;2023-10-31T13:33:23;2.07;;;0.10;;
61391;SDS011;47261;52.892;5.738;2023-10-31T13:35:48;1.25;;;0.20;;
61391;SDS011;47261;52.892;5.738;2023-10-31T13:38:14;1.87;;;0.10;;
61391;SDS011;47261;52.892;5.738;2023-10-31T13:40:40;2.30;;;0.15;;
61391;SDS011;47261;52.892;5.738;2023-10-31T13:43:06;1.83;;;0.10;;
61391;SDS011;47261;52.892;5.738;2023-10-31T13:45:31;0.85;;;0.10;;
61391;SDS011;47261;52.892;5.738;2023-10-31T13:47:58;1.42;;;0.13;;
61391;SDS011;47261;52.892;5.738;2023-10-31T13:50:24;0.50;;;0.10;;
61391;SDS011;47261;52.892;5.738;2023-10-31T13:52:50;1.85;;;0.25;;
61391;SDS011;47261;52.892;5.738;2023-10-31T13:55:17;1.38;;;0.10;;
61391;SDS011;47261;52.892;5.738;2023-10-31T13:57:43;2.40;;;0.23;;
61391;SDS011;47261;52.892;5.738;2023-10-31T14:00:09;1.92;;;0.20;;
61391;SDS011;47261;52.892;5.738;2023-10-31T14:02:35;1.08;;;0.20;;
61391;SDS011;47261;52.892;5.738;2023-10-31T14:05:01;2.47;;;0.20;;
61391;SDS011;47261;52.892;5.738;2023-10-31T14:07:27;4.13;;;0.30;;
61391;SDS011;47261;52.892;5.738;2023-10-31T14:09:53;2.93;;;0.30;;
61391;SDS011;47261;52.892;5.738;2023-10-31T14:12:20;3.13;;;0.45;;
61391;SDS011;47261;52.892;5.738;2023-10-31T14:14:46;2.40;;;0.10;;
61391;SDS011;47261;52.892;5.738;2023-10-31T14:17:14;1.03;;;0.10;;
61391;SDS011;47261;52.892;5.738;2023-10-31T14:19:41;1.60;;;0.10;;
61391;SDS011;47261;52.892;5.738;2023-10-31T14:22:08;4.82;;;0.20;;
61391;SDS011;47261;52.892;5.738;2023-10-31T14:24:34;2.28;;;0.22;;
61391;SDS011;47261;52.892;5.738;2023-10-31T14:27:00;2.80;;;0.30;;
61391;SDS011;47261;52.892;5.738;2023-10-31T14:29:26;3.40;;;0.30;;
61391;SDS011;47261;52.892;5.738;2023-10-31T14:31:52;2.40;;;0.20;;
61391;SDS011;47261;52.892;5.738;2023-10-31T14:34:19;6.03;;;0.30;;
61391;SDS011;47261;52.892;5.738;2023-10-31T14:36:46;1.13;;;0.10;;
61391;SDS011;47261;52.892;5.738;2023-10-31T14:39:12;0.82;;;0.10;;
61391;SDS011;47261;52.892;5.738;2023-10-31T14:41:38;2.35;;;0.20;;
61391;SDS011;47261;52.892;5.738;2023-10-31T14:44:04;2.83;;;0.10;;
61391;SDS011;47261;52.892;5.738;2023-10-31T14:46:30;0.80;;;0.40;;